Time;durP1;ratioP1;P1;durP2;ratioP2;P2;SDS_P1;SDS_P2;PMS_P1;PMS_P2;Temp;Humidity;BMP_temperature;BMP_pressure;BME280_temperature;BME280_humidity;BME280_pressure;Samples;Min_cycle;Max_cycle;Signal;HPM_P1;HPM_P2
2021/03/07 00:01:43;;;;;;;38.20;12.93;;;;;;;-0.84;64.94;99767.22;2161139;82;21274;-67
2021/03/07 00:04:45;;;;;;;36.25;11.75;;;;;;;-0.81;64.98;99764.20;2161021;82;21155;-68
2021/03/07 00:07:47;;;;;;;36.42;13.00;;;;;;;-0.77;65.45;99761.20;2161094;82;21738;-71
2021/03/07 00:10:49;;;;;;;35.23;12.35;;;;;;;-0.74;64.89;99759.91;2161087;82;21142;-66
2021/03/07 00:13:51;;;;;;;37.13;12.10;;;;;;;-0.70;64.88;99765.06;2140189;82;21753;-71
2021/03/07 00:16:53;;;;;;;33.35;11.57;;;;;;;-0.67;64.84;99753.91;2160959;82;21111;-69
2021/03/07 00:19:55;;;;;;;32.65;11.85;;;;;;;-0.62;64.89;99760.33;2161180;82;21710;-71
2021/03/07 00:22:57;;;;;;;39.05;12.18;;;;;;;-0.59;64.40;99750.02;2161275;82;21285;-70
2021/03/07 00:26:00;;;;;;;36.73;12.95;;;;;;;-0.56;64.55;99747.43;2161043;82;21130;-71
2021/03/07 00:29:02;;;;;;;32.60;12.43;;;;;;;-0.54;64.39;99744.44;2161381;82;21273;-69
2021/03/07 00:32:04;;;;;;;32.58;11.33;;;;;;;-0.52;64.09;99751.73;2161063;82;21131;-70
2021/03/07 00:35:06;;;;;;;35.05;13.03;;;;;;;-0.51;64.61;99745.72;2161035;82;21179;-70
2021/03/07 00:38:08;;;;;;;35.63;12.73;;;;;;;-0.50;64.49;99736.26;2161200;82;21607;-71
2021/03/07 00:41:10;;;;;;;34.90;12.50;;;;;;;-0.52;64.52;99734.98;2161575;82;21274;-71
2021/03/07 00:44:12;;;;;;;35.33;12.53;;;;;;;-0.51;64.88;99722.52;2161203;82;21741;-71
2021/03/07 00:47:14;;;;;;;33.45;12.68;;;;;;;-0.47;64.69;99719.09;2161134;82;21278;-71
2021/03/07 00:50:16;;;;;;;34.78;11.15;;;;;;;-0.47;65.16;99725.53;2161288;82;21289;-70
2021/03/07 00:53:18;;;;;;;37.40;11.80;;;;;;;-0.44;64.49;99722.09;2161557;82;21289;-71
2021/03/07 00:56:20;;;;;;;34.23;12.30;;;;;;;-0.43;65.32;99710.90;2161194;82;21735;-70
2021/03/07 00:59:22;;;;;;;34.95;12.13;;;;;;;-0.43;65.20;99713.07;2161200;82;21267;-67
2021/03/07 01:02:24;;;;;;;36.70;12.93;;;;;;;-0.42;65.23;99710.89;2161204;82;21753;-67
2021/03/07 01:05:26;;;;;;;33.10;11.93;;;;;;;-0.41;65.29;99698.44;2161332;82;21154;-66
2021/03/07 01:08:28;;;;;;;34.58;11.73;;;;;;;-0.42;65.31;99698.00;2161165;82;21285;-66
2021/03/07 01:11:30;;;;;;;34.88;12.13;;;;;;;-0.42;65.72;99700.58;2161211;82;21293;-67
2021/03/07 01:14:33;;;;;;;37.08;12.25;;;;;;;-0.44;65.82;99705.34;2161155;82;21274;-66
2021/03/07 01:17:35;;;;;;;34.78;11.75;;;;;;;-0.45;65.63;99703.17;2161173;82;21726;-68
2021/03/07 01:20:37;;;;;;;30.45;8.68;;;;;;;-0.41;65.63;99697.16;2161211;82;21581;-66
2021/03/07 01:23:39;;;;;;;32.88;11.05;;;;;;;-0.41;65.70;99706.62;2163180;81;21305;-67
2021/03/07 01:26:41;;;;;;;34.58;11.35;;;;;;;-0.42;66.11;99695.87;2178606;81;21127;-69
2021/03/07 01:29:43;;;;;;;30.23;10.28;;;;;;;-0.45;66.10;99691.58;2178572;81;21249;-71
2021/03/07 01:32:45;;;;;;;32.10;12.07;;;;;;;-0.43;66.35;99684.71;2178605;81;21704;-67
2021/03/07 01:35:47;;;;;;;38.45;13.45;;;;;;;-0.40;66.58;99683.85;2178935;82;21308;-68
2021/03/07 01:38:49;;;;;;;35.60;12.05;;;;;;;-0.35;66.22;99671.79;2178536;81;21143;-67
2021/03/07 01:41:51;;;;;;;33.73;11.20;;;;;;;-0.31;66.21;99666.20;2178611;81;21326;-66
2021/03/07 01:44:53;;;;;;;35.17;12.68;;;;;;;-0.30;66.42;99672.64;2178608;81;21269;-67
2021/03/07 01:47:55;;;;;;;30.57;11.53;;;;;;;-0.31;66.48;99656.73;2178548;81;21268;-67
2021/03/07 01:50:57;;;;;;;34.00;12.50;;;;;;;-0.28;66.75;99650.72;2178691;81;21277;-69
2021/03/07 01:53:59;;;;;;;32.83;10.78;;;;;;;-0.27;66.76;99644.27;2178552;81;21297;-67
2021/03/07 01:57:01;;;;;;;32.80;11.48;;;;;;;-0.27;66.61;99621.51;2178667;81;21162;-67
2021/03/07 02:00:03;;;;;;;31.35;12.00;;;;;;;-0.26;66.86;99616.75;2178591;81;21253;-66
2021/03/07 02:03:05;;;;;;;30.23;11.73;;;;;;;-0.24;66.92;99616.33;2178606;81;21253;-68
2021/03/07 02:06:07;;;;;;;36.10;12.70;;;;;;;-0.26;67.06;99607.31;2178534;81;21316;-67
2021/03/07 02:09:09;;;;;;;33.00;10.90;;;;;;;-0.25;66.87;99596.56;2178528;81;21272;-71
2021/03/07 02:12:11;;;;;;;31.80;10.65;;;;;;;-0.23;67.01;99603.43;2178585;81;21289;-71
2021/03/07 02:15:13;;;;;;;34.23;12.43;;;;;;;-0.23;66.85;99601.27;2178555;81;21288;-70
2021/03/07 02:18:16;;;;;;;32.40;11.55;;;;;;;-0.23;67.01;99596.98;2178540;81;21127;-71
2021/03/07 02:21:18;;;;;;;34.43;10.88;;;;;;;-0.21;67.19;99595.24;2178755;81;21297;-66
2021/03/07 02:24:20;;;;;;;30.23;10.70;;;;;;;-0.22;67.30;99590.94;2178468;81;21166;-67
2021/03/07 02:27:22;;;;;;;31.40;10.65;;;;;;;-0.19;67.38;99592.66;2178506;81;21134;-66
2021/03/07 02:30:24;;;;;;;29.60;9.18;;;;;;;-0.19;67.12;99587.08;2178488;81;21716;-67
2021/03/07 02:33:26;;;;;;;32.50;10.82;;;;;;;-0.19;67.28;99592.24;2178501;81;21292;-67
2021/03/07 02:36:28;;;;;;;28.45;9.55;;;;;;;-0.21;67.51;99579.77;2178622;81;21768;-67
2021/03/07 02:39:30;;;;;;;30.20;10.38;;;;;;;-0.20;67.75;99585.36;2178497;81;21154;-68
2021/03/07 02:42:32;;;;;;;30.60;10.15;;;;;;;-0.19;67.37;99574.19;2178536;81;21273;-67
2021/03/07 02:45:34;;;;;;;33.28;11.12;;;;;;;-0.16;67.33;99573.73;2178523;81;21732;-66
2021/03/07 02:48:36;;;;;;;29.18;9.95;;;;;;;-0.16;67.39;99569.87;2178506;81;21249;-67
2021/03/07 02:51:38;;;;;;;30.43;10.13;;;;;;;-0.16;67.49;99574.58;2178538;81;21779;-66
2021/03/07 02:54:40;;;;;;;30.60;10.40;;;;;;;-0.16;67.39;99566.84;2178608;81;21721;-66
2021/03/07 02:57:42;;;;;;;30.15;10.80;;;;;;;-0.14;67.30;99552.23;2178814;81;21150;-66
2021/03/07 03:00:49;;;;;;;28.12;10.03;;;;;;;-0.10;67.16;99556.93;2178450;81;21709;-66
2021/03/07 03:03:49;;;;;;;26.20;8.10;;;;;;;-0.09;67.24;99556.92;2177947;81;21753;-71
2021/03/07 03:06:52;;;;;;;28.55;9.20;;;;;;;-0.08;67.52;99555.22;2178329;81;21268;-70
2021/03/07 03:09:54;;;;;;;30.52;8.90;;;;;;;-0.07;67.39;99543.59;2178517;81;21732;-71
2021/03/07 03:12:56;;;;;;;26.37;8.05;;;;;;;-0.05;67.30;99548.30;2178541;81;21146;-70
2021/03/07 03:15:58;;;;;;;26.97;8.65;;;;;;;-0.04;67.48;99547.44;2178609;81;21796;-70
2021/03/07 03:19:00;;;;;;;29.65;10.15;;;;;;;-0.03;67.36;99532.40;2178573;81;21732;-72
2021/03/07 03:22:02;;;;;;;28.30;9.70;;;;;;;-0.02;67.63;99537.11;2178858;81;21175;-70
2021/03/07 03:25:04;;;;;;;29.40;9.60;;;;;;;0.01;67.27;99527.22;2178534;81;21724;-67
2021/03/07 03:28:06;;;;;;;32.13;9.43;;;;;;;-0.01;67.26;99525.49;2178415;81;21281;-68
2021/03/07 03:31:08;;;;;;;28.73;8.18;;;;;;;-0.01;67.26;99525.49;2178450;81;21277;-67
2021/03/07 03:34:10;;;;;;;25.75;8.68;;;;;;;0.03;67.53;99525.47;2178450;81;21292;-66
2021/03/07 03:37:12;;;;;;;28.20;8.80;;;;;;;0.00;67.61;99521.21;2178472;81;21095;-67
2021/03/07 03:40:14;;;;;;;26.37;8.58;;;;;;;0.02;67.39;99525.07;2178478;81;21276;-67
2021/03/07 03:43:16;;;;;;;26.80;8.75;;;;;;;0.03;67.48;99519.02;2178502;81;21740;-67
2021/03/07 03:46:18;;;;;;;21.27;6.20;;;;;;;0.05;68.00;99506.98;2178843;81;21147;-66
2021/03/07 03:49:21;;;;;;;25.20;8.10;;;;;;;0.01;67.48;99501.42;2178710;82;21278;-67
2021/03/07 03:52:23;;;;;;;25.40;8.23;;;;;;;0.06;67.53;99511.25;2178344;81;21593;-67
2021/03/07 03:55:25;;;;;;;26.40;8.10;;;;;;;0.07;67.87;99494.50;2178449;81;21312;-67
2021/03/07 03:58:27;;;;;;;24.50;7.03;;;;;;;0.10;67.88;99493.19;2178524;81;21709;-68
2021/03/07 04:01:29;;;;;;;27.45;8.15;;;;;;;0.12;67.71;99492.72;2178787;81;21301;-66
2021/03/07 04:04:31;;;;;;;22.80;7.17;;;;;;;0.14;67.76;99491.42;2178482;81;21714;-66
2021/03/07 04:07:34;;;;;;;24.52;7.62;;;;;;;0.15;67.66;99486.69;2178425;82;21269;-67
2021/03/07 04:10:36;;;;;;;25.75;7.53;;;;;;;0.19;67.81;99489.67;2178458;81;21280;-66
2021/03/07 04:13:38;;;;;;;23.20;7.92;;;;;;;0.20;67.66;99483.63;2178775;81;21761;-66
2021/03/07 04:16:40;;;;;;;29.23;8.35;;;;;;;0.20;67.76;99470.72;2178726;81;21166;-66
2021/03/07 04:19:42;;;;;;;26.37;7.40;;;;;;;0.21;67.72;99473.73;2179015;81;21147;-66
2021/03/07 04:22:44;;;;;;;27.00;8.45;;;;;;;0.22;67.67;99474.16;2178681;81;21272;-66
2021/03/07 04:25:46;;;;;;;22.90;6.58;;;;;;;0.22;67.55;99478.03;2168653;81;21698;-66
2021/03/07 04:28:48;;;;;;;24.12;7.22;;;;;;;0.21;67.28;99485.79;2161225;82;21617;-66
2021/03/07 04:31:51;;;;;;;;;;;;;;;0.21;67.39;99485.34;2163918;82;21179;-66
2021/03/07 04:34:53;;;;;;;22.90;6.80;;;;;;;0.22;67.52;99469.45;2161317;82;20238;-67
2021/03/07 04:37:55;;;;;;;25.40;7.10;;;;;;;0.20;67.42;99486.65;2161194;82;21268;-66
2021/03/07 04:40:57;;;;;;;25.05;7.62;;;;;;;0.21;67.19;99475.47;2161167;82;21321;-68
2021/03/07 04:43:59;;;;;;;23.92;7.65;;;;;;;0.24;67.26;99467.70;2161545;82;21305;-71
2021/03/07 04:47:01;;;;;;;29.70;7.70;;;;;;;0.23;67.52;99473.72;2161191;82;21724;-71
2021/03/07 04:50:03;;;;;;;26.15;7.92;;;;;;;0.21;67.32;99485.34;2161229;82;21281;-66
2021/03/07 04:53:05;;;;;;;29.52;7.60;;;;;;;0.22;67.04;99484.48;2161152;81;21293;-70
2021/03/07 04:56:07;;;;;;;24.87;7.65;;;;;;;0.23;67.26;99469.84;2161187;82;21293;-67
2021/03/07 04:59:09;;;;;;;26.70;7.47;;;;;;;0.22;67.19;99460.41;2140243;82;21251;-67
2021/03/07 05:02:11;;;;;;;24.65;6.67;;;;;;;0.20;66.89;99475.04;2161431;82;21270;-68
2021/03/07 05:05:13;;;;;;;26.65;7.92;;;;;;;0.22;67.09;99472.88;2161241;82;21273;-68
2021/03/07 05:08:15;;;;;;;23.95;7.08;;;;;;;0.22;66.70;99479.77;2161307;82;21698;-68
2021/03/07 05:11:17;;;;;;;27.07;7.97;;;;;;;0.23;67.01;99465.97;2161222;82;21294;-66
2021/03/07 05:14:19;;;;;;;26.10;8.30;;;;;;;0.24;66.88;99456.09;2161175;82;21737;-67
2021/03/07 05:17:24;;;;;;;25.10;7.15;;;;;;;0.24;67.01;99441.45;2161197;82;21242;-68
2021/03/07 05:20:26;;;;;;;26.30;8.90;;;;;;;0.24;66.98;99461.25;2161012;82;21289;-71
2021/03/07 05:23:28;;;;;;;23.55;7.85;;;;;;;0.26;67.03;99458.20;2161301;82;21151;-71
2021/03/07 05:26:30;;;;;;;24.40;7.85;;;;;;;0.20;66.89;99438.47;2173853;81;21135;-71
2021/03/07 05:29:32;;;;;;;25.00;7.50;;;;;;;0.29;66.72;99442.27;2178710;81;21550;-70
2021/03/07 05:32:34;;;;;;;24.80;7.28;;;;;;;0.25;66.42;99435.42;2178713;81;21704;-71
2021/03/07 05:35:37;;;;;;;27.07;8.55;;;;;;;0.34;66.72;99447.38;2178567;82;21601;-71
2021/03/07 05:38:39;;;;;;;26.62;8.10;;;;;;;0.32;66.16;99453.85;2178552;81;21285;-71
2021/03/07 05:41:41;;;;;;;26.15;7.95;;;;;;;0.32;66.44;99455.14;2178587;81;21732;-71
2021/03/07 05:44:43;;;;;;;25.10;8.70;;;;;;;0.33;66.38;99452.11;2178602;81;21110;-71
2021/03/07 05:47:45;;;;;;;26.68;8.30;;;;;;;0.34;66.40;99440.52;2178876;81;21159;-71
2021/03/07 05:50:47;;;;;;;26.50;8.08;;;;;;;0.36;66.53;99447.36;2178604;81;21126;-71
2021/03/07 05:53:49;;;;;;;27.30;7.55;;;;;;;0.38;66.17;99445.20;2178665;81;21142;-67
2021/03/07 05:56:51;;;;;;;24.60;7.35;;;;;;;0.41;66.01;99452.06;2178525;81;21344;-66
2021/03/07 05:59:53;;;;;;;25.65;7.42;;;;;;;0.40;65.96;99433.12;2178574;81;21262;-66
2021/03/07 06:02:55;;;;;;;24.63;8.73;;;;;;;0.43;66.31;99433.53;2151005;82;21725;-66
2021/03/07 06:05:58;;;;;;;27.48;8.48;;;;;;;0.44;66.09;99427.06;2178559;81;21265;-66
2021/03/07 06:09:00;;;;;;;27.67;8.90;;;;;;;0.45;65.70;99439.11;2178524;82;21280;-66
2021/03/07 06:12:02;;;;;;;25.32;8.23;;;;;;;0.49;65.81;99428.33;2178532;82;21269;-66
2021/03/07 06:15:04;;;;;;;28.95;8.83;;;;;;;0.53;65.84;99426.55;2150358;82;21272;-66
2021/03/07 06:18:06;;;;;;;23.38;7.62;;;;;;;0.53;65.66;99429.98;2178452;81;21182;-67
2021/03/07 06:21:08;;;;;;;26.48;8.28;;;;;;;0.56;65.58;99421.35;2178653;81;21150;-66
2021/03/07 06:24:11;;;;;;;27.13;8.93;;;;;;;0.59;65.64;99420.02;2178665;81;21269;-67
2021/03/07 06:27:13;;;;;;;30.32;9.58;;;;;;;0.61;65.81;99422.17;2163620;81;21305;-67
2021/03/07 06:30:16;;;;;;;26.73;8.75;;;;;;;0.65;65.75;99424.70;2161118;82;21163;-68
2021/03/07 06:33:20;;;;;;;25.45;8.58;;;;;;;0.68;65.43;99416.06;2140025;82;21281;-67
2021/03/07 06:36:22;;;;;;;21.87;6.17;;;;;;;0.73;65.21;99406.97;2161016;82;21179;-69
2021/03/07 06:39:25;;;;;;;29.05;9.18;;;;;;;0.78;64.31;99414.24;2160979;82;21153;-71
2021/03/07 06:42:27;;;;;;;25.32;8.08;;;;;;;0.86;64.62;99391.31;2161270;82;21289;-71
2021/03/07 06:45:30;;;;;;;30.20;9.53;;;;;;;0.93;64.49;99404.98;2160982;82;21611;-68
2021/03/07 06:48:32;;;;;;;27.52;8.03;;;;;;;0.98;64.74;99386.88;2161091;82;21742;-68
2021/03/07 06:51:34;;;;;;;25.97;7.92;;;;;;;1.03;64.22;99404.45;2161213;82;21283;-67
2021/03/07 06:54:36;;;;;;;29.00;8.90;;;;;;;1.04;64.30;99394.53;2161101;82;21170;-68
2021/03/07 06:57:38;;;;;;;27.65;8.73;;;;;;;1.07;63.67;99403.53;2161100;82;21162;-68
2021/03/07 07:00:40;;;;;;;26.10;7.10;;;;;;;1.09;64.46;99400.48;2161460;82;21159;-68
2021/03/07 07:03:43;;;;;;;30.80;9.50;;;;;;;1.13;63.71;99401.31;2161424;82;21772;-67
2021/03/07 07:06:45;;;;;;;22.58;7.08;;;;;;;1.16;63.74;99389.19;2161072;82;21155;-67
2021/03/07 07:09:47;;;;;;;27.87;9.15;;;;;;;1.20;63.71;99374.51;2139960;82;21273;-66
2021/03/07 07:12:49;;;;;;;25.08;7.78;;;;;;;1.26;63.63;99382.61;2161301;82;21764;-67
2021/03/07 07:15:52;;;;;;;30.08;10.25;;;;;;;1.29;63.12;99392.45;2139843;82;21191;-67
2021/03/07 07:18:54;;;;;;;27.05;7.70;;;;;;;1.33;63.60;99382.94;2161046;82;21127;-66
2021/03/07 07:21:56;;;;;;;26.15;8.03;;;;;;;1.33;63.25;99385.52;2161325;82;21274;-66
2021/03/07 07:24:58;;;;;;;27.95;8.83;;;;;;;1.35;63.22;99374.71;2161661;81;21143;-67
2021/03/07 07:28:03;;;;;;;30.97;9.85;;;;;;;1.38;63.05;99346.27;2178490;81;21272;-67
2021/03/07 07:31:05;;;;;;;26.93;8.03;;;;;;;1.40;63.41;99370.80;2178612;82;21276;-66
2021/03/07 07:34:07;;;;;;;25.17;8.58;;;;;;;1.43;62.79;99348.31;2178452;81;21598;-66
2021/03/07 07:37:10;;;;;;;27.60;9.15;;;;;;;1.43;62.79;99348.31;2178701;81;21273;-67
2021/03/07 07:40:12;;;;;;;27.40;8.95;;;;;;;1.46;63.25;99351.30;2178505;82;21273;-66
2021/03/07 07:43:14;;;;;;;24.10;8.40;;;;;;;1.50;63.13;99352.52;2178587;81;21297;-66
2021/03/07 07:46:16;;;;;;;28.35;9.05;;;;;;;1.52;62.59;99353.36;2178436;81;21126;-67
2021/03/07 07:49:18;;;;;;;28.83;10.15;;;;;;;1.56;62.59;99352.41;2178721;81;21173;-66
2021/03/07 07:52:20;;;;;;;27.87;8.85;;;;;;;1.51;62.72;99355.52;2178405;81;21577;-67
2021/03/07 07:55:23;;;;;;;25.90;7.90;;;;;;;1.53;62.37;99342.56;2178367;81;21618;-69
2021/03/07 07:58:25;;;;;;;24.57;7.83;;;;;;;1.52;61.84;99351.20;2178774;81;21273;-71
2021/03/07 08:01:27;;;;;;;23.87;8.28;;;;;;;1.54;62.76;99342.55;2178469;81;21268;-71
2021/03/07 08:04:29;;;;;;;25.15;7.97;;;;;;;1.60;62.37;99355.81;2178423;81;21305;-71
2021/03/07 08:07:31;;;;;;;24.30;7.92;;;;;;;1.61;61.95;99347.19;2178442;81;21297;-69
2021/03/07 08:10:33;;;;;;;26.85;9.13;;;;;;;1.61;62.04;99349.77;2178467;81;21161;-72
2021/03/07 08:13:35;;;;;;;25.95;8.43;;;;;;;1.61;62.36;99311.41;2178491;81;21135;-69
2021/03/07 08:16:38;;;;;;;25.52;7.30;;;;;;;1.70;62.43;99308.23;2178493;81;21729;-67
2021/03/07 08:19:41;;;;;;;29.15;10.43;;;;;;;1.78;61.97;99333.11;2178769;81;21289;-67
2021/03/07 08:22:43;;;;;;;24.85;7.72;;;;;;;1.81;61.29;99305.47;2178443;81;21292;-67
2021/03/07 08:25:45;;;;;;;25.35;7.67;;;;;;;1.89;61.21;99301.44;2178372;81;21288;-68
2021/03/07 08:28:47;;;;;;;27.10;9.68;;;;;;;1.98;61.23;99318.53;2178545;81;21579;-68
2021/03/07 08:31:49;;;;;;;27.27;8.03;;;;;;;2.00;61.77;99290.46;2178693;82;21717;-67
2021/03/07 08:34:51;;;;;;;25.10;7.37;;;;;;;2.06;60.64;99312.33;2178642;82;21325;-66
2021/03/07 08:37:53;;;;;;;22.55;7.05;;;;;;;2.04;60.40;99313.23;2178514;82;21717;-67
2021/03/07 08:40:56;;;;;;;24.82;7.75;;;;;;;2.11;61.11;99296.70;2178473;81;21276;-67
2021/03/07 08:43:58;;;;;;;27.30;9.63;;;;;;;2.23;60.60;99299.08;2178439;81;21772;-67
2021/03/07 08:47:00;;;;;;;23.98;6.95;;;;;;;2.34;60.15;99278.17;2178405;82;21272;-66
2021/03/07 08:50:04;;;;;;;26.55;9.15;;;;;;;2.38;59.41;99293.18;2178436;82;21142;-67
2021/03/07 08:53:07;;;;;;;23.87;7.22;;;;;;;2.38;60.19;99290.14;2178335;81;21131;-67
2021/03/07 08:56:09;;;;;;;24.10;7.78;;;;;;;2.37;59.87;99300.53;2178749;82;21189;-67
2021/03/07 08:59:11;;;;;;;25.55;8.00;;;;;;;2.28;59.91;99300.27;2178580;81;21281;-67
2021/03/07 09:02:13;;;;;;;23.35;6.70;;;;;;;2.28;59.88;99261.89;2178636;81;21751;-67
2021/03/07 09:05:15;;;;;;;27.00;8.58;;;;;;;2.31;60.06;99284.67;2178992;81;21155;-67
2021/03/07 09:08:17;;;;;;;24.95;6.60;;;;;;;2.39;60.14;99285.37;2178714;81;21283;-67
2021/03/07 09:11:19;;;;;;;28.75;9.60;;;;;;;2.42;59.46;99297.42;2178637;81;21250;-67
2021/03/07 09:14:23;;;;;;;24.07;9.05;;;;;;;2.45;59.85;99274.50;2178475;82;21284;-66
2021/03/07 09:17:25;;;;;;;25.02;8.98;;;;;;;2.42;60.07;99258.58;2178944;81;21154;-67
2021/03/07 09:20:27;;;;;;;27.17;9.60;;;;;;;2.49;60.31;99266.63;2151006;82;21134;-67
2021/03/07 09:23:29;;;;;;;26.07;9.65;;;;;;;2.57;59.84;99233.66;2178634;81;21134;-67
2021/03/07 09:26:31;;;;;;;23.20;8.43;;;;;;;2.59;59.56;99259.52;2178467;81;21472;-67
2021/03/07 09:29:33;;;;;;;25.77;8.83;;;;;;;2.60;59.18;99262.50;2178571;81;21111;-70
2021/03/07 09:32:36;;;;;;;24.15;8.80;;;;;;;2.56;59.83;99244.05;2178592;82;21103;-69
2021/03/07 09:35:38;;;;;;;23.83;7.80;;;;;;;2.60;59.77;99236.18;2178567;81;21583;-68
2021/03/07 09:38:40;;;;;;;26.55;8.00;;;;;;;2.59;60.00;99244.83;2178645;81;21701;-67
2021/03/07 09:41:43;;;;;;;23.87;7.75;;;;;;;2.53;59.37;99252.73;2178576;82;21285;-70
2021/03/07 09:44:45;;;;;;;26.77;8.45;;;;;;;2.50;59.51;99256.69;2178416;81;21281;-67
2021/03/07 09:47:47;;;;;;;22.70;7.35;;;;;;;2.48;59.67;99247.24;2178577;81;21288;-68
2021/03/07 09:50:49;;;;;;;22.70;7.05;;;;;;;2.47;59.87;99246.41;2178599;81;21313;-67
2021/03/07 09:53:52;;;;;;;24.25;6.97;;;;;;;2.55;59.18;99248.81;2178683;81;21304;-68
2021/03/07 09:56:55;;;;;;;23.57;8.33;;;;;;;2.50;59.27;99250.64;2178526;81;21320;-67
2021/03/07 09:59:57;;;;;;;25.50;7.30;;;;;;;2.54;59.80;99258.34;2178424;81;21301;-67
2021/03/07 10:03:02;;;;;;;26.87;9.98;;;;;;;2.61;59.94;99252.56;2178593;81;21269;-68
2021/03/07 10:06:04;;;;;;;27.93;8.80;;;;;;;2.72;59.84;99226.44;2178514;82;21289;-67
2021/03/07 10:09:07;;;;;;;26.65;8.80;;;;;;;2.72;59.83;99243.27;2178492;82;21261;-70
2021/03/07 10:12:09;;;;;;;;;;;;;;;2.78;59.02;99245.72;2181047;81;21157;-67
2021/03/07 10:15:11;;;;;;;25.83;8.40;;;;;;;2.68;58.64;99256.72;2178656;82;20224;-67
2021/03/07 10:18:15;;;;;;;;;;;;;;;2.62;59.75;99236.59;2153179;82;21288;-68
2021/03/07 10:21:18;;;;;;;27.48;7.30;;;;;;;2.58;59.39;99231.91;2178382;82;20180;-69
2021/03/07 10:24:20;;;;;;;27.15;7.90;;;;;;;2.51;59.19;99249.77;2178612;81;21133;-70
2021/03/07 10:27:23;;;;;;;27.95;9.30;;;;;;;2.54;59.61;99241.50;2168239;81;21313;-67
2021/03/07 10:30:25;;;;;;;28.38;10.00;;;;;;;2.61;60.20;99234.43;2161158;82;21281;-67
2021/03/07 10:33:28;;;;;;;26.80;9.48;;;;;;;2.72;60.14;99220.80;2161139;82;21155;-69
2021/03/07 10:36:30;;;;;;;25.15;8.25;;;;;;;2.76;60.00;99213.83;2161178;82;21269;-68
2021/03/07 10:39:32;;;;;;;22.07;6.22;;;;;;;2.81;59.18;99220.19;2161147;82;21139;-67
2021/03/07 10:42:34;;;;;;;25.75;8.53;;;;;;;2.82;58.50;99220.16;2160736;82;21108;-68
2021/03/07 10:45:36;;;;;;;26.10;8.40;;;;;;;2.79;59.05;99204.69;2161200;82;21266;-67
2021/03/07 10:48:41;;;;;;;27.40;9.03;;;;;;;2.87;59.16;99200.61;2161056;82;21210;-66
2021/03/07 10:51:44;;;;;;;27.13;8.60;;;;;;;2.90;58.98;99199.23;2161004;82;21147;-67
2021/03/07 10:54:46;;;;;;;26.97;9.05;;;;;;;2.95;58.50;99199.98;2161316;82;21334;-66
2021/03/07 10:57:49;;;;;;;29.30;8.38;;;;;;;2.94;58.23;99200.87;2161083;82;21132;-66
2021/03/07 11:00:51;;;;;;;24.10;7.45;;;;;;;3.00;58.14;99194.69;2161219;82;21786;-67
2021/03/07 11:03:53;;;;;;;23.30;7.58;;;;;;;2.97;57.68;99175.33;2161108;82;21171;-67
2021/03/07 11:06:55;;;;;;;23.22;7.10;;;;;;;2.91;58.19;99197.90;2161145;82;21270;-68
2021/03/07 11:09:57;;;;;;;21.15;6.60;;;;;;;2.86;58.11;99195.88;2161096;82;21147;-67
2021/03/07 11:13:00;;;;;;;20.48;6.03;;;;;;;2.83;57.97;99189.48;2139877;82;21136;-66
2021/03/07 11:16:02;;;;;;;21.42;5.97;;;;;;;2.77;57.19;99203.42;2161403;82;21308;-66
2021/03/07 11:19:05;;;;;;;21.90;6.87;;;;;;;2.69;57.49;99204.49;2161188;81;21273;-67
2021/03/07 11:22:07;;;;;;;22.52;6.35;;;;;;;2.73;58.26;99184.08;2161086;82;21103;-67
2021/03/07 11:25:09;;;;;;;21.77;6.62;;;;;;;2.73;58.12;99189.26;2161197;81;21626;-68
2021/03/07 11:28:11;;;;;;;20.12;6.80;;;;;;;2.77;57.83;99179.23;2161013;82;21163;-67
2021/03/07 11:31:13;;;;;;;21.52;7.17;;;;;;;2.75;57.57;99165.03;2161086;81;21595;-67
2021/03/07 11:34:15;;;;;;;23.10;7.05;;;;;;;2.80;58.71;99162.78;2161052;81;21151;-67
2021/03/07 11:37:19;;;;;;;21.97;6.30;;;;;;;2.78;57.93;99165.41;2160950;82;21127;-66
2021/03/07 11:40:22;;;;;;;24.37;7.60;;;;;;;2.73;57.15;99169.41;2161335;82;21154;-67
2021/03/07 11:43:24;;;;;;;20.40;6.00;;;;;;;2.71;58.52;99155.63;2161404;82;21286;-67
2021/03/07 11:46:26;;;;;;;21.45;6.55;;;;;;;2.70;57.76;99160.84;2161027;82;21195;-66
2021/03/07 11:49:28;;;;;;;23.38;7.30;;;;;;;2.69;57.80;99165.19;2138853;82;21162;-66
2021/03/07 11:52:30;;;;;;;23.75;7.42;;;;;;;2.67;58.24;99168.69;2139880;82;21265;-68
2021/03/07 11:55:32;;;;;;;24.63;7.45;;;;;;;2.63;57.77;99151.09;2161111;82;21587;-68
2021/03/07 11:58:34;;;;;;;21.07;6.60;;;;;;;2.65;57.98;99148.46;2161087;82;21171;-67
2021/03/07 12:01:36;;;;;;;25.43;9.03;;;;;;;2.65;57.62;99145.41;2161040;82;21123;-67
2021/03/07 12:04:38;;;;;;;23.73;7.50;;;;;;;2.70;58.06;99121.98;2161411;82;21284;-66
2021/03/07 12:07:40;;;;;;;21.62;6.62;;;;;;;2.68;57.50;99142.75;2161015;82;21135;-66
2021/03/07 12:10:43;;;;;;;22.75;6.97;;;;;;;2.67;57.52;99163.51;2161251;81;21277;-67
2021/03/07 12:13:45;;;;;;;25.48;8.48;;;;;;;2.64;57.20;99126.87;2160999;82;21152;-67
2021/03/07 12:16:47;;;;;;;23.83;7.53;;;;;;;2.69;57.93;99113.38;2161000;82;21164;-66
2021/03/07 12:19:49;;;;;;;26.95;8.60;;;;;;;2.70;57.70;99117.68;2161508;82;21297;-67
2021/03/07 12:22:51;;;;;;;28.17;8.90;;;;;;;2.73;58.33;99096.88;2161414;82;21294;-66
2021/03/07 12:25:53;;;;;;;25.72;9.20;;;;;;;2.77;58.12;99095.05;2161052;81;21140;-66
2021/03/07 12:28:56;;;;;;;25.70;8.48;;;;;;;2.80;57.97;99091.53;2161012;81;21159;-67
2021/03/07 12:31:58;;;;;;;25.68;8.70;;;;;;;2.85;58.50;99092.28;2161307;82;21321;-67
2021/03/07 12:35:00;;;;;;;24.87;8.08;;;;;;;2.86;58.46;99088.78;2161257;82;21293;-66
2021/03/07 12:38:02;;;;;;;25.55;9.03;;;;;;;2.83;57.57;99087.14;2161307;82;21723;-66
2021/03/07 12:41:04;;;;;;;24.15;7.95;;;;;;;2.77;58.22;99081.66;2161151;82;21297;-69
2021/03/07 12:44:07;;;;;;;25.97;9.18;;;;;;;2.80;57.41;99079.88;2161227;82;21127;-68
2021/03/07 12:47:09;;;;;;;27.13;9.95;;;;;;;2.84;57.75;99069.84;2161533;82;21290;-67
2021/03/07 12:50:11;;;;;;;;;;;;;;;2.88;58.01;99070.17;2163702;82;21126;-68
2021/03/07 12:53:14;;;;;;;25.55;9.13;;;;;;;2.90;59.03;99065.79;2161241;82;20142;-71
2021/03/07 12:56:16;;;;;;;27.58;8.90;;;;;;;2.89;57.30;99070.13;2161172;82;21123;-68
2021/03/07 12:59:18;;;;;;;26.35;8.13;;;;;;;2.91;57.43;99065.75;2161239;81;21308;-68
2021/03/07 13:02:20;;;;;;;21.77;6.72;;;;;;;2.88;56.60;99090.91;2161228;82;21139;-68
2021/03/07 13:05:22;;;;;;;;;;;;;;;2.85;56.48;99079.33;2163693;82;21293;-67
2021/03/07 13:08:25;;;;;;;25.08;7.78;;;;;;;2.81;57.22;99061.70;2161120;82;20557;-67
2021/03/07 13:11:27;;;;;;;25.45;9.40;;;;;;;2.82;56.10;99078.11;2161575;82;21289;-66
2021/03/07 13:14:29;;;;;;;29.37;8.68;;;;;;;2.77;56.93;99067.84;2161160;82;21262;-67
2021/03/07 13:17:31;;;;;;;26.52;9.83;;;;;;;2.73;57.17;99074.86;2161206;82;21119;-67
2021/03/07 13:20:33;;;;;;;31.35;9.25;;;;;;;2.72;57.57;99055.47;2161211;82;21274;-66
2021/03/07 13:23:35;;;;;;;26.05;8.80;;;;;;;2.70;57.09;99060.69;2161308;82;21261;-67
2021/03/07 13:26:38;;;;;;;;;;;;;;;2.71;56.74;99075.78;2164168;81;21777;-67
2021/03/07 13:29:40;;;;;;;24.50;8.23;;;;;;;2.71;57.43;99050.72;2178742;82;20122;-67
2021/03/07 13:32:42;;;;;;;26.95;8.70;;;;;;;2.73;57.50;99038.59;2178611;81;21174;-67
2021/03/07 13:35:44;;;;;;;25.88;8.00;;;;;;;2.73;57.20;99055.42;2178464;81;21751;-67
2021/03/07 13:38:46;;;;;;;26.77;9.53;;;;;;;2.77;57.21;99053.59;2178550;81;21131;-67
2021/03/07 13:41:48;;;;;;;22.77;7.42;;;;;;;2.81;57.18;99031.06;2178949;81;21150;-66
2021/03/07 13:44:50;;;;;;;25.37;9.03;;;;;;;2.80;56.95;99059.15;2178568;81;21573;-67
2021/03/07 13:47:52;;;;;;;25.77;8.30;;;;;;;2.77;57.15;99027.27;2178604;82;21095;-66
2021/03/07 13:50:55;;;;;;;26.97;9.10;;;;;;;2.76;57.05;99027.30;2178679;81;21727;-67
2021/03/07 13:53:57;;;;;;;25.35;9.33;;;;;;;2.75;56.60;99033.37;2178693;81;21265;-67
2021/03/07 13:57:00;;;;;;;25.92;9.13;;;;;;;2.75;57.33;99022.55;2178983;81;21281;-67
2021/03/07 14:00:02;;;;;;;27.22;9.70;;;;;;;2.76;57.56;99007.42;2178458;81;21154;-67
2021/03/07 14:03:04;;;;;;;26.05;9.23;;;;;;;2.77;57.15;99013.02;2178556;81;21344;-67
2021/03/07 14:06:08;;;;;;;25.43;9.08;;;;;;;2.83;57.73;98989.98;2150754;82;21265;-66
2021/03/07 14:09:10;;;;;;;28.47;10.30;;;;;;;2.86;56.93;98994.20;2178576;81;21301;-67
2021/03/07 14:12:12;;;;;;;29.55;10.80;;;;;;;2.90;57.38;98994.53;2178570;81;21269;-67
2021/03/07 14:15:14;;;;;;;27.35;10.30;;;;;;;2.97;57.81;98983.11;2178621;81;21182;-67